sensor_id;sensor_type;location;lat;lon;timestamp;temperature;humidity
7936;DHT22;4013;49.744;8.118;2023-08-12T04:47:42;20.20;99.90
7936;DHT22;4013;49.744;8.118;2023-08-12T04:50:09;20.10;99.90
7936;DHT22;4013;49.744;8.118;2023-08-12T04:52:36;20.20;99.90
7936;DHT22;4013;49.744;8.118;2023-08-12T04:55:03;20.20;99.90
7936;DHT22;4013;49.744;8.118;2023-08-12T04:57:31;20.20;99.90
7936;DHT22;4013;49.744;8.118;2023-08-12T05:00:05;20.20;99.90
7936;DHT22;4013;49.744;8.118;2023-08-12T05:02:33;20.20;99.90
7936;DHT22;4013;49.744;8.118;2023-08-12T05:05:02;20.20;99.90
7936;DHT22;4013;49.744;8.118;2023-08-12T05:07:29;20.20;99.90
7936;DHT22;4013;49.744;8.118;2023-08-12T05:09:56;20.20;99.90
7936;DHT22;4013;49.744;8.118;2023-08-12T05:12:23;20.20;99.90
7936;DHT22;4013;49.744;8.118;2023-08-12T05:14:50;20.20;99.90
7936;DHT22;4013;49.744;8.118;2023-08-12T05:17:17;20.30;99.90
7936;DHT22;4013;49.744;8.118;2023-08-12T05:19:44;20.30;99.90
7936;DHT22;4013;49.744;8.118;2023-08-12T05:22:13;20.40;99.90
7936;DHT22;4013;49.744;8.118;2023-08-12T05:24:39;20.40;99.90
7936;DHT22;4013;49.744;8.118;2023-08-12T05:27:06;20.40;99.90
7936;DHT22;4013;49.744;8.118;2023-08-12T05:29:33;20.30;99.90
7936;DHT22;4013;49.744;8.118;2023-08-12T05:32:00;20.30;99.90
7936;DHT22;4013;49.744;8.118;2023-08-12T05:34:27;20.40;99.90
7936;DHT22;4013;49.744;8.118;2023-08-12T05:36:54;20.40;99.90
7936;DHT22;4013;49.744;8.118;2023-08-12T05:39:22;20.40;99.90
7936;DHT22;4013;49.744;8.118;2023-08-12T05:41:49;20.40;99.90
7936;DHT22;4013;49.744;8.118;2023-08-12T05:44:18;20.50;99.90
7936;DHT22;4013;49.744;8.118;2023-08-12T05:46:45;20.60;99.90
7936;DHT22;4013;49.744;8.118;2023-08-12T05:49:12;20.60;99.90
7936;DHT22;4013;49.744;8.118;2023-08-12T05:51:39;20.70;99.90
7936;DHT22;4013;49.744;8.118;2023-08-12T05:54:07;20.80;99.90
7936;DHT22;4013;49.744;8.118;2023-08-12T05:56:35;20.80;99.90
7936;DHT22;4013;49.744;8.118;2023-08-12T05:59:02;20.80;99.90
7936;DHT22;4013;49.744;8.118;2023-08-12T06:01:29;20.90;99.90
7936;DHT22;4013;49.744;8.118;2023-08-12T06:03:56;21.00;99.90
7936;DHT22;4013;49.744;8.118;2023-08-12T06:06:23;21.10;99.90
7936;DHT22;4013;49.744;8.118;2023-08-12T06:08:50;21.20;99.90
7936;DHT22;4013;49.744;8.118;2023-08-12T06:11:16;21.30;99.90
7936;DHT22;4013;49.744;8.118;2023-08-12T06:13:45;21.40;99.90
7936;DHT22;4013;49.744;8.118;2023-08-12T06:16:12;21.50;99.90
7936;DHT22;4013;49.744;8.118;2023-08-12T06:18:39;21.60;99.90
7936;DHT22;4013;49.744;8.118;2023-08-12T06:21:05;21.80;99.90
7936;DHT22;4013;49.744;8.118;2023-08-12T06:23:32;21.80;99.90
7936;DHT22;4013;49.744;8.118;2023-08-12T06:25:59;21.80;99.90
7936;DHT22;4013;49.744;8.118;2023-08-12T06:28:26;21.80;99.90
7936;DHT22;4013;49.744;8.118;2023-08-12T06:30:54;21.80;99.90
7936;DHT22;4013;49.744;8.118;2023-08-12T06:33:21;21.70;99.90
7936;DHT22;4013;49.744;8.118;2023-08-12T06:35:50;21.70;99.90
7936;DHT22;4013;49.744;8.118;2023-08-12T06:38:17;21.60;99.90
7936;DHT22;4013;49.744;8.118;2023-08-12T06:40:44;21.70;99.90
7936;DHT22;4013;49.744;8.118;2023-08-12T06:43:12;21.70;99.90
7936;DHT22;4013;49.744;8.118;2023-08-12T06:45:39;21.70;99.90
7936;DHT22;4013;49.744;8.118;2023-08-12T06:48:07;21.70;99.90
7936;DHT22;4013;49.744;8.118;2023-08-12T06:50:34;21.80;99.90
7936;DHT22;4013;49.744;8.118;2023-08-12T06:53:01;21.90;99.90
7936;DHT22;4013;49.744;8.118;2023-08-12T06:55:28;21.90;99.90
7936;DHT22;4013;49.744;8.118;2023-08-12T06:57:55;21.80;99.90
7936;DHT22;4013;49.744;8.118;2023-08-12T07:00:22;21.90;99.90
7936;DHT22;4013;49.744;8.118;2023-08-12T07:02:48;22.00;99.90
7936;DHT22;4013;49.744;8.118;2023-08-12T07:05:17;22.00;99.90
7936;DHT22;4013;49.744;8.118;2023-08-12T07:07:44;22.10;99.90
7936;DHT22;4013;49.744;8.118;2023-08-12T07:10:11;22.10;99.90
7936;DHT22;4013;49.744;8.118;2023-08-12T07:12:37;22.20;99.90
7936;DHT22;4013;49.744;8.118;2023-08-12T07:15:05;22.20;99.90
7936;DHT22;4013;49.744;8.118;2023-08-12T07:17:32;22.10;99.90
7936;DHT22;4013;49.744;8.118;2023-08-12T07:19:59;22.10;99.90
7936;DHT22;4013;49.744;8.118;2023-08-12T07:22:28;22.20;99.90
7936;DHT22;4013;49.744;8.118;2023-08-12T07:24:55;22.20;99.90
7936;DHT22;4013;49.744;8.118;2023-08-12T07:27:22;22.30;99.90
7936;DHT22;4013;49.744;8.118;2023-08-12T07:29:48;22.30;99.90
7936;DHT22;4013;49.744;8.118;2023-08-12T07:32:15;22.30;99.90
7936;DHT22;4013;49.744;8.118;2023-08-12T07:34:42;22.30;99.90
7936;DHT22;4013;49.744;8.118;2023-08-12T07:37:09;22.30;99.90
7936;DHT22;4013;49.744;8.118;2023-08-12T07:39:37;22.30;99.90
7936;DHT22;4013;49.744;8.118;2023-08-12T07:42:05;22.50;99.90
7936;DHT22;4013;49.744;8.118;2023-08-12T07:44:32;22.50;99.90
7936;DHT22;4013;49.744;8.118;2023-08-12T07:46:59;22.50;99.90
7936;DHT22;4013;49.744;8.118;2023-08-12T07:49:25;22.40;99.90
7936;DHT22;4013;49.744;8.118;2023-08-12T07:51:52;22.50;99.90
7936;DHT22;4013;49.744;8.118;2023-08-12T07:54:19;22.50;99.90
7936;DHT22;4013;49.744;8.118;2023-08-12T07:56:48;22.50;99.90
7936;DHT22;4013;49.744;8.118;2023-08-12T07:59:14;22.60;99.90
7936;DHT22;4013;49.744;8.118;2023-08-12T08:01:41;22.70;99.90
7936;DHT22;4013;49.744;8.118;2023-08-12T08:04:08;22.80;99.90
7936;DHT22;4013;49.744;8.118;2023-08-12T08:06:35;23.00;99.90
7936;DHT22;4013;49.744;8.118;2023-08-12T08:09:03;23.30;99.90
7936;DHT22;4013;49.744;8.118;2023-08-12T08:11:30;23.30;99.90
7936;DHT22;4013;49.744;8.118;2023-08-12T08:13:59;23.20;99.90
7936;DHT22;4013;49.744;8.118;2023-08-12T08:16:26;23.20;99.90
7936;DHT22;4013;49.744;8.118;2023-08-12T08:18:53;23.10;99.90
7936;DHT22;4013;49.744;8.118;2023-08-12T08:21:19;23.10;99.90
7936;DHT22;4013;49.744;8.118;2023-08-12T08:23:46;23.10;99.90
7936;DHT22;4013;49.744;8.118;2023-08-12T08:26:13;23.10;99.90
7936;DHT22;4013;49.744;8.118;2023-08-12T08:28:41;23.10;99.90
7936;DHT22;4013;49.744;8.118;2023-08-12T08:31:10;23.20;99.90
7936;DHT22;4013;49.744;8.118;2023-08-12T08:33:36;23.20;99.90
7936;DHT22;4013;49.744;8.118;2023-08-12T08:36:04;23.30;99.90
7936;DHT22;4013;49.744;8.118;2023-08-12T08:38:31;23.30;99.90
7936;DHT22;4013;49.744;8.118;2023-08-12T08:40:58;23.40;99.90
7936;DHT22;4013;49.744;8.118;2023-08-12T08:43:26;23.30;99.90
7936;DHT22;4013;49.744;8.118;2023-08-12T08:45:54;23.30;99.90
7936;DHT22;4013;49.744;8.118;2023-08-12T08:48:22;23.50;99.90
7936;DHT22;4013;49.744;8.118;2023-08-12T08:50:50;23.60;99.90
7936;DHT22;4013;49.744;8.118;2023-08-12T08:53:18;23.70;99.90
7936;DHT22;4013;49.744;8.118;2023-08-12T08:55:45;23.80;99.90
7936;DHT22;4013;49.744;8.118;2023-08-12T08:58:12;23.80;99.90
7936;DHT22;4013;49.744;8.118;2023-08-12T09:00:40;23.80;99.90
7936;DHT22;4013;49.744;8.118;2023-08-12T09:03:07;23.80;99.90
7936;DHT22;4013;49.744;8.118;2023-08-12T09:05:37;23.70;99.90
7936;DHT22;4013;49.744;8.118;2023-08-12T09:08:07;23.70;99.90
7936;DHT22;4013;49.744;8.118;2023-08-12T09:10:37;23.80;99.90
7936;DHT22;4013;49.744;8.118;2023-08-12T09:13:06;23.80;99.90
7936;DHT22;4013;49.744;8.118;2023-08-12T09:15:32;23.90;99.90
7936;DHT22;4013;49.744;8.118;2023-08-12T09:17:59;23.90;99.90
7936;DHT22;4013;49.744;8.118;2023-08-12T09:20:27;24.00;99.90
7936;DHT22;4013;49.744;8.118;2023-08-12T09:22:59;23.90;99.90
7936;DHT22;4013;49.744;8.118;2023-08-12T09:25:26;24.00;99.90
7936;DHT22;4013;49.744;8.118;2023-08-12T09:27:55;24.00;99.90
7936;DHT22;4013;49.744;8.118;2023-08-12T09:30:22;24.00;99.90
7936;DHT22;4013;49.744;8.118;2023-08-12T09:32:58;24.00;99.90
7936;DHT22;4013;49.744;8.118;2023-08-12T09:35:32;24.10;99.90
7936;DHT22;4013;49.744;8.118;2023-08-12T09:38:03;24.10;99.90
7936;DHT22;4013;49.744;8.118;2023-08-12T09:40:31;24.10;99.90
7936;DHT22;4013;49.744;8.118;2023-08-12T09:42:59;23.90;99.90
7936;DHT22;4013;49.744;8.118;2023-08-12T09:45:26;23.70;99.90
7936;DHT22;4013;49.744;8.118;2023-08-12T09:47:54;23.60;99.90
7936;DHT22;4013;49.744;8.118;2023-08-12T09:50:22;23.40;99.90
7936;DHT22;4013;49.744;8.118;2023-08-12T09:52:50;23.20;99.90
7936;DHT22;4013;49.744;8.118;2023-08-12T09:55:22;22.80;99.90
7936;DHT22;4013;49.744;8.118;2023-08-12T09:57:51;22.30;99.90
7936;DHT22;4013;49.744;8.118;2023-08-12T10:00:19;21.90;99.90
7936;DHT22;4013;49.744;8.118;2023-08-12T10:02:50;21.70;99.90
7936;DHT22;4013;49.744;8.118;2023-08-12T10:05:21;21.50;99.90
7936;DHT22;4013;49.744;8.118;2023-08-12T10:07:48;21.40;99.90
7936;DHT22;4013;49.744;8.118;2023-08-12T10:10:16;21.30;99.90
7936;DHT22;4013;49.744;8.118;2023-08-12T10:12:45;21.20;99.90
7936;DHT22;4013;49.744;8.118;2023-08-12T10:15:14;21.20;99.90
7936;DHT22;4013;49.744;8.118;2023-08-12T10:17:41;21.10;99.90
7936;DHT22;4013;49.744;8.118;2023-08-12T10:20:12;21.10;99.90
7936;DHT22;4013;49.744;8.118;2023-08-12T10:22:39;21.10;99.90
7936;DHT22;4013;49.744;8.118;2023-08-12T10:25:08;21.00;99.90
7936;DHT22;4013;49.744;8.118;2023-08-12T10:27:36;21.10;99.90
7936;DHT22;4013;49.744;8.118;2023-08-12T10:30:06;21.10;99.90
7936;DHT22;4013;49.744;8.118;2023-08-12T10:32:36;21.10;99.90
7936;DHT22;4013;49.744;8.118;2023-08-12T10:35:04;21.20;99.90
7936;DHT22;4013;49.744;8.118;2023-08-12T10:37:33;21.10;99.90
7936;DHT22;4013;49.744;8.118;2023-08-12T10:40:02;21.00;99.90
7936;DHT22;4013;49.744;8.118;2023-08-12T10:42:43;21.00;99.90
7936;DHT22;4013;49.744;8.118;2023-08-12T10:45:13;21.10;99.90
7936;DHT22;4013;49.744;8.118;2023-08-12T10:47:48;21.10;99.90
7936;DHT22;4013;49.744;8.118;2023-08-12T10:50:19;21.10;99.90
7936;DHT22;4013;49.744;8.118;2023-08-12T10:52:47;21.10;99.90
7936;DHT22;4013;49.744;8.118;2023-08-12T10:55:19;21.10;99.90
7936;DHT22;4013;49.744;8.118;2023-08-12T10:57:47;21.20;99.90
7936;DHT22;4013;49.744;8.118;2023-08-12T11:00:16;21.30;99.90
7936;DHT22;4013;49.744;8.118;2023-08-12T11:02:49;21.30;99.90
7936;DHT22;4013;49.744;8.118;2023-08-12T11:05:17;21.40;99.90
7936;DHT22;4013;49.744;8.118;2023-08-12T11:07:46;21.40;99.90
7936;DHT22;4013;49.744;8.118;2023-08-12T11:10:14;21.40;99.90
7936;DHT22;4013;49.744;8.118;2023-08-12T11:12:47;21.50;99.90
7936;DHT22;4013;49.744;8.118;2023-08-12T11:15:16;21.40;99.90
7936;DHT22;4013;49.744;8.118;2023-08-12T11:17:46;21.40;99.90
7936;DHT22;4013;49.744;8.118;2023-08-12T11:20:13;21.40;99.90
7936;DHT22;4013;49.744;8.118;2023-08-12T11:22:42;21.50;99.90
7936;DHT22;4013;49.744;8.118;2023-08-12T11:25:10;21.50;99.90
7936;DHT22;4013;49.744;8.118;2023-08-12T11:27:39;21.50;99.90
7936;DHT22;4013;49.744;8.118;2023-08-12T11:30:09;21.60;99.90
7936;DHT22;4013;49.744;8.118;2023-08-12T11:32:38;21.60;99.90
7936;DHT22;4013;49.744;8.118;2023-08-12T11:35:07;21.60;99.90
7936;DHT22;4013;49.744;8.118;2023-08-12T11:37:35;21.60;99.90
7936;DHT22;4013;49.744;8.118;2023-08-12T11:40:03;21.60;99.90
7936;DHT22;4013;49.744;8.118;2023-08-12T11:42:31;21.70;99.90
7936;DHT22;4013;49.744;8.118;2023-08-12T11:44:58;21.70;99.90
7936;DHT22;4013;49.744;8.118;2023-08-12T11:47:25;21.80;99.90
7936;DHT22;4013;49.744;8.118;2023-08-12T11:49:53;21.80;99.90
7936;DHT22;4013;49.744;8.118;2023-08-12T11:52:21;21.80;99.90
7936;DHT22;4013;49.744;8.118;2023-08-12T11:54:49;21.80;99.90
7936;DHT22;4013;49.744;8.118;2023-08-12T11:57:16;21.90;99.90
7936;DHT22;4013;49.744;8.118;2023-08-12T11:59:43;21.90;99.90
7936;DHT22;4013;49.744;8.118;2023-08-12T12:02:11;21.90;99.90
7936;DHT22;4013;49.744;8.118;2023-08-12T12:04:41;22.00;99.90
7936;DHT22;4013;49.744;8.118;2023-08-12T12:07:20;22.10;99.90
7936;DHT22;4013;49.744;8.118;2023-08-12T12:09:49;22.20;99.90
7936;DHT22;4013;49.744;8.118;2023-08-12T12:12:17;22.30;99.90
7936;DHT22;4013;49.744;8.118;2023-08-12T12:14:47;22.30;99.90
7936;DHT22;4013;49.744;8.118;2023-08-12T12:17:14;22.40;99.90
7936;DHT22;4013;49.744;8.118;2023-08-12T12:19:41;22.50;99.90
7936;DHT22;4013;49.744;8.118;2023-08-12T12:22:09;22.60;99.90
7936;DHT22;4013;49.744;8.118;2023-08-12T12:24:45;22.70;99.90
7936;DHT22;4013;49.744;8.118;2023-08-12T12:27:13;22.80;99.90
7936;DHT22;4013;49.744;8.118;2023-08-12T12:29:40;22.80;99.90
7936;DHT22;4013;49.744;8.118;2023-08-12T12:32:07;22.80;99.90
7936;DHT22;4013;49.744;8.118;2023-08-12T12:34:34;22.70;99.90
7936;DHT22;4013;49.744;8.118;2023-08-12T12:37:01;22.80;99.90
7936;DHT22;4013;49.744;8.118;2023-08-12T12:39:28;22.90;99.90
7936;DHT22;4013;49.744;8.118;2023-08-12T12:41:58;23.00;99.90
7936;DHT22;4013;49.744;8.118;2023-08-12T12:44:26;23.10;99.90
7936;DHT22;4013;49.744;8.118;2023-08-12T12:46:54;23.20;99.90
7936;DHT22;4013;49.744;8.118;2023-08-12T12:49:22;23.30;99.90
7936;DHT22;4013;49.744;8.118;2023-08-12T12:51:52;23.50;99.90
7936;DHT22;4013;49.744;8.118;2023-08-12T12:54:20;23.60;99.90
7936;DHT22;4013;49.744;8.118;2023-08-12T12:56:48;23.70;99.90
7936;DHT22;4013;49.744;8.118;2023-08-12T12:59:16;23.70;99.90
7936;DHT22;4013;49.744;8.118;2023-08-12T13:01:43;23.80;99.90
7936;DHT22;4013;49.744;8.118;2023-08-12T13:04:10;23.70;99.90
7936;DHT22;4013;49.744;8.118;2023-08-12T13:06:37;23.90;99.90
7936;DHT22;4013;49.744;8.118;2023-08-12T13:09:04;24.10;99.90
7936;DHT22;4013;49.744;8.118;2023-08-12T13:11:33;24.30;99.90
7936;DHT22;4013;49.744;8.118;2023-08-12T13:14:00;24.50;99.90
7936;DHT22;4013;49.744;8.118;2023-08-12T13:16:29;24.70;99.90
7936;DHT22;4013;49.744;8.118;2023-08-12T13:18:56;24.80;99.90
7936;DHT22;4013;49.744;8.118;2023-08-12T13:21:24;24.70;99.90
7936;DHT22;4013;49.744;8.118;2023-08-12T13:23:51;24.60;99.90
7936;DHT22;4013;49.744;8.118;2023-08-12T13:26:18;24.70;99.90
7936;DHT22;4013;49.744;8.118;2023-08-12T13:28:45;24.70;99.90
7936;DHT22;4013;49.744;8.118;2023-08-12T13:31:12;24.70;99.90
7936;DHT22;4013;49.744;8.118;2023-08-12T13:33:40;24.80;99.90
7936;DHT22;4013;49.744;8.118;2023-08-12T13:36:07;24.80;99.90
7936;DHT22;4013;49.744;8.118;2023-08-12T13:38:34;24.90;99.90
7936;DHT22;4013;49.744;8.118;2023-08-12T13:41:01;25.10;99.90
7936;DHT22;4013;49.744;8.118;2023-08-12T13:43:28;25.20;99.90
7936;DHT22;4013;49.744;8.118;2023-08-12T13:45:56;25.40;99.90
7936;DHT22;4013;49.744;8.118;2023-08-12T13:48:23;25.50;99.90
7936;DHT22;4013;49.744;8.118;2023-08-12T13:50:51;25.50;99.90
7936;DHT22;4013;49.744;8.118;2023-08-12T13:53:18;25.60;99.90
7936;DHT22;4013;49.744;8.118;2023-08-12T13:55:45;25.50;99.90
7936;DHT22;4013;49.744;8.118;2023-08-12T13:58:12;25.50;99.90
7936;DHT22;4013;49.744;8.118;2023-08-12T14:00:39;25.60;99.90
7936;DHT22;4013;49.744;8.118;2023-08-12T14:03:06;25.70;99.90
7936;DHT22;4013;49.744;8.118;2023-08-12T14:05:34;25.80;99.90
7936;DHT22;4013;49.744;8.118;2023-08-12T14:08:02;25.80;99.90
7936;DHT22;4013;49.744;8.118;2023-08-12T14:10:29;25.80;99.90
7936;DHT22;4013;49.744;8.118;2023-08-12T14:12:56;25.80;99.90
7936;DHT22;4013;49.744;8.118;2023-08-12T14:15:23;25.80;99.90
7936;DHT22;4013;49.744;8.118;2023-08-12T14:17:50;25.80;99.90
7936;DHT22;4013;49.744;8.118;2023-08-12T14:20:17;25.90;99.90
7936;DHT22;4013;49.744;8.118;2023-08-12T14:22:44;25.90;99.90
7936;DHT22;4013;49.744;8.118;2023-08-12T14:25:12;25.80;99.90
7936;DHT22;4013;49.744;8.118;2023-08-12T14:27:39;25.80;99.90
7936;DHT22;4013;49.744;8.118;2023-08-12T14:30:08;25.80;99.90
7936;DHT22;4013;49.744;8.118;2023-08-12T14:32:35;25.80;99.90
7936;DHT22;4013;49.744;8.118;2023-08-12T14:35:03;25.80;99.90
7936;DHT22;4013;49.744;8.118;2023-08-12T14:37:31;25.70;99.90
7936;DHT22;4013;49.744;8.118;2023-08-12T14:39:58;25.70;99.90
7936;DHT22;4013;49.744;8.118;2023-08-12T14:42:26;25.60;99.90
7936;DHT22;4013;49.744;8.118;2023-08-12T14:44:53;25.60;99.90
7936;DHT22;4013;49.744;8.118;2023-08-12T14:47:20;25.60;99.90
7936;DHT22;4013;49.744;8.118;2023-08-12T14:49:47;25.60;99.90
7936;DHT22;4013;49.744;8.118;2023-08-12T14:52:19;25.60;99.90
7936;DHT22;4013;49.744;8.118;2023-08-12T14:54:46;25.50;99.90
7936;DHT22;4013;49.744;8.118;2023-08-12T14:57:14;25.40;99.90
7936;DHT22;4013;49.744;8.118;2023-08-12T14:59:42;25.40;99.90
7936;DHT22;4013;49.744;8.118;2023-08-12T15:02:09;25.40;99.90
7936;DHT22;4013;49.744;8.118;2023-08-12T15:04:36;25.40;99.90
7936;DHT22;4013;49.744;8.118;2023-08-12T15:07:03;25.40;99.90
7936;DHT22;4013;49.744;8.118;2023-08-12T15:09:30;25.40;99.90
7936;DHT22;4013;49.744;8.118;2023-08-12T15:11:57;25.40;99.90
7936;DHT22;4013;49.744;8.118;2023-08-12T15:14:24;25.30;99.90
7936;DHT22;4013;49.744;8.118;2023-08-12T15:16:53;25.40;99.90
7936;DHT22;4013;49.744;8.118;2023-08-12T15:19:20;25.30;99.90
7936;DHT22;4013;49.744;8.118;2023-08-12T15:21:47;25.30;99.90
7936;DHT22;4013;49.744;8.118;2023-08-12T15:24:14;25.40;99.90
7936;DHT22;4013;49.744;8.118;2023-08-12T15:26:41;25.50;99.90
7936;DHT22;4013;49.744;8.118;2023-08-12T15:29:08;25.60;99.90
7936;DHT22;4013;49.744;8.118;2023-08-12T15:31:36;25.60;99.90
7936;DHT22;4013;49.744;8.118;2023-08-12T15:34:04;25.60;99.90
7936;DHT22;4013;49.744;8.118;2023-08-12T15:36:31;25.50;99.90
7936;DHT22;4013;49.744;8.118;2023-08-12T15:39:01;25.40;99.90
7936;DHT22;4013;49.744;8.118;2023-08-12T15:41:28;25.50;99.90
7936;DHT22;4013;49.744;8.118;2023-08-12T15:43:55;25.40;99.90
7936;DHT22;4013;49.744;8.118;2023-08-12T15:46:22;25.40;99.90
7936;DHT22;4013;49.744;8.118;2023-08-12T15:48:49;25.40;99.90
7936;DHT22;4013;49.744;8.118;2023-08-12T15:51:17;25.30;99.90
7936;DHT22;4013;49.744;8.118;2023-08-12T15:53:44;25.30;99.90
7936;DHT22;4013;49.744;8.118;2023-08-12T15:56:11;25.20;99.90
7936;DHT22;4013;49.744;8.118;2023-08-12T15:58:38;25.10;99.90
7936;DHT22;4013;49.744;8.118;2023-08-12T16:01:05;25.00;99.90
7936;DHT22;4013;49.744;8.118;2023-08-12T16:03:32;25.00;99.90
7936;DHT22;4013;49.744;8.118;2023-08-12T16:05:59;25.00;99.90
7936;DHT22;4013;49.744;8.118;2023-08-12T16:08:27;25.10;99.90
7936;DHT22;4013;49.744;8.118;2023-08-12T16:10:54;25.10;99.90
7936;DHT22;4013;49.744;8.118;2023-08-12T16:13:21;25.20;99.90
7936;DHT22;4013;49.744;8.118;2023-08-12T16:15:48;25.00;99.90
7936;DHT22;4013;49.744;8.118;2023-08-12T16:18:15;24.90;99.90
7936;DHT22;4013;49.744;8.118;2023-08-12T16:20:42;24.80;99.90
7936;DHT22;4013;49.744;8.118;2023-08-12T16:23:09;24.80;99.90
7936;DHT22;4013;49.744;8.118;2023-08-12T16:25:37;24.70;99.90
7936;DHT22;4013;49.744;8.118;2023-08-12T16:28:04;24.70;99.90
7936;DHT22;4013;49.744;8.118;2023-08-12T16:30:31;24.70;99.90
7936;DHT22;4013;49.744;8.118;2023-08-12T16:32:59;24.70;99.90
7936;DHT22;4013;49.744;8.118;2023-08-12T16:35:26;24.70;99.90
7936;DHT22;4013;49.744;8.118;2023-08-12T16:37:53;24.70;99.90
7936;DHT22;4013;49.744;8.118;2023-08-12T16:40:20;24.70;99.90
7936;DHT22;4013;49.744;8.118;2023-08-12T16:42:48;24.70;99.90
7936;DHT22;4013;49.744;8.118;2023-08-12T16:45:15;24.60;99.90
7936;DHT22;4013;49.744;8.118;2023-08-12T16:47:43;24.70;99.90
7936;DHT22;4013;49.744;8.118;2023-08-12T16:50:10;24.60;99.90
7936;DHT22;4013;49.744;8.118;2023-08-12T16:52:37;24.60;99.90
7936;DHT22;4013;49.744;8.118;2023-08-12T16:55:05;24.60;99.90
7936;DHT22;4013;49.744;8.118;2023-08-12T16:57:32;24.60;99.90
7936;DHT22;4013;49.744;8.118;2023-08-12T17:00:00;24.50;99.90
7936;DHT22;4013;49.744;8.118;2023-08-12T17:02:30;24.60;99.90
7936;DHT22;4013;49.744;8.118;2023-08-12T17:04:57;24.70;99.90
7936;DHT22;4013;49.744;8.118;2023-08-12T17:07:24;24.80;99.90
7936;DHT22;4013;49.744;8.118;2023-08-12T17:09:51;24.90;99.90
7936;DHT22;4013;49.744;8.118;2023-08-12T17:12:18;24.90;99.90
7936;DHT22;4013;49.744;8.118;2023-08-12T17:14:45;24.90;99.90
7936;DHT22;4013;49.744;8.118;2023-08-12T17:17:13;25.00;99.90
7936;DHT22;4013;49.744;8.118;2023-08-12T17:19:41;25.00;99.90
7936;DHT22;4013;49.744;8.118;2023-08-12T17:22:08;25.00;99.90
7936;DHT22;4013;49.744;8.118;2023-08-12T17:24:35;24.90;99.90
7936;DHT22;4013;49.744;8.118;2023-08-12T17:27:02;24.90;99.90
7936;DHT22;4013;49.744;8.118;2023-08-12T17:29:29;24.80;99.90
7936;DHT22;4013;49.744;8.118;2023-08-12T17:31:56;24.70;99.90
7936;DHT22;4013;49.744;8.118;2023-08-12T17:34:25;24.70;99.90
7936;DHT22;4013;49.744;8.118;2023-08-12T17:36:52;24.70;99.90
7936;DHT22;4013;49.744;8.118;2023-08-12T17:39:19;24.70;99.90
7936;DHT22;4013;49.744;8.118;2023-08-12T17:41:46;24.70;99.90
7936;DHT22;4013;49.744;8.118;2023-08-12T17:44:13;24.70;99.90
7936;DHT22;4013;49.744;8.118;2023-08-12T17:46:40;24.70;99.90
7936;DHT22;4013;49.744;8.118;2023-08-12T17:49:08;24.70;99.90
7936;DHT22;4013;49.744;8.118;2023-08-12T17:51:36;24.70;99.90
7936;DHT22;4013;49.744;8.118;2023-08-12T17:54:03;24.70;99.90
7936;DHT22;4013;49.744;8.118;2023-08-12T17:56:30;24.70;99.90
7936;DHT22;4013;49.744;8.118;2023-08-12T17:58:57;24.60;99.90
7936;DHT22;4013;49.744;8.118;2023-08-12T18:01:26;24.60;99.90
7936;DHT22;4013;49.744;8.118;2023-08-12T18:03:53;24.50;99.90
7936;DHT22;4013;49.744;8.118;2023-08-12T18:06:20;24.50;99.90
7936;DHT22;4013;49.744;8.118;2023-08-12T18:08:48;24.50;99.90
7936;DHT22;4013;49.744;8.118;2023-08-12T18:11:15;24.40;99.90
7936;DHT22;4013;49.744;8.118;2023-08-12T18:13:42;24.40;99.90
7936;DHT22;4013;49.744;8.118;2023-08-12T18:16:09;24.30;99.90
7936;DHT22;4013;49.744;8.118;2023-08-12T18:18:36;24.30;99.90
7936;DHT22;4013;49.744;8.118;2023-08-12T18:21:03;24.10;99.90
7936;DHT22;4013;49.744;8.118;2023-08-12T18:23:30;24.00;99.90
7936;DHT22;4013;49.744;8.118;2023-08-12T18:25:58;24.00;99.90
7936;DHT22;4013;49.744;8.118;2023-08-12T18:28:25;23.90;99.90
7936;DHT22;4013;49.744;8.118;2023-08-12T18:30:52;23.80;99.90
7936;DHT22;4013;49.744;8.118;2023-08-12T18:33:19;23.90;99.90
7936;DHT22;4013;49.744;8.118;2023-08-12T18:35:47;23.80;99.90
7936;DHT22;4013;49.744;8.118;2023-08-12T18:38:14;23.80;99.90
7936;DHT22;4013;49.744;8.118;2023-08-12T18:40:41;23.80;99.90
7936;DHT22;4013;49.744;8.118;2023-08-12T18:43:10;23.60;99.90
7936;DHT22;4013;49.744;8.118;2023-08-12T18:45:37;23.50;99.90
7936;DHT22;4013;49.744;8.118;2023-08-12T18:48:04;23.40;99.90
7936;DHT22;4013;49.744;8.118;2023-08-12T18:50:31;23.40;99.90
7936;DHT22;4013;49.744;8.118;2023-08-12T18:52:58;23.30;99.90
7936;DHT22;4013;49.744;8.118;2023-08-12T18:55:25;23.20;99.90
7936;DHT22;4013;49.744;8.118;2023-08-12T18:57:52;23.20;99.90
7936;DHT22;4013;49.744;8.118;2023-08-12T19:00:20;23.20;99.90
7936;DHT22;4013;49.744;8.118;2023-08-12T19:02:49;23.10;99.90
7936;DHT22;4013;49.744;8.118;2023-08-12T19:05:16;23.10;99.90
7936;DHT22;4013;49.744;8.118;2023-08-12T19:07:43;23.20;99.90
7936;DHT22;4013;49.744;8.118;2023-08-12T19:10:10;23.10;99.90
7936;DHT22;4013;49.744;8.118;2023-08-12T19:12:37;23.00;99.90
7936;DHT22;4013;49.744;8.118;2023-08-12T19:15:04;23.00;99.90
7936;DHT22;4013;49.744;8.118;2023-08-12T19:17:33;23.00;99.90
7936;DHT22;4013;49.744;8.118;2023-08-12T19:20:00;23.00;99.90
7936;DHT22;4013;49.744;8.118;2023-08-12T19:22:27;22.90;99.90
7936;DHT22;4013;49.744;8.118;2023-08-12T19:24:54;22.90;99.90
7936;DHT22;4013;49.744;8.118;2023-08-12T19:27:22;22.90;99.90
7936;DHT22;4013;49.744;8.118;2023-08-12T19:29:49;22.80;99.90
7936;DHT22;4013;49.744;8.118;2023-08-12T19:32:16;22.80;99.90
7936;DHT22;4013;49.744;8.118;2023-08-12T19:34:44;22.80;99.90
7936;DHT22;4013;49.744;8.118;2023-08-12T19:37:11;22.80;99.90
7936;DHT22;4013;49.744;8.118;2023-08-12T19:39:38;22.90;99.90
7936;DHT22;4013;49.744;8.118;2023-08-12T19:42:05;22.80;99.90
7936;DHT22;4013;49.744;8.118;2023-08-12T19:44:32;22.80;99.90
7936;DHT22;4013;49.744;8.118;2023-08-12T19:46:59;22.70;99.90
7936;DHT22;4013;49.744;8.118;2023-08-12T19:49:26;22.70;99.90
7936;DHT22;4013;49.744;8.118;2023-08-12T19:51:55;22.70;99.90
7936;DHT22;4013;49.744;8.118;2023-08-12T19:54:22;22.60;99.90
7936;DHT22;4013;49.744;8.118;2023-08-12T19:56:49;22.60;99.90
7936;DHT22;4013;49.744;8.118;2023-08-12T19:59:16;22.70;99.90
7936;DHT22;4013;49.744;8.118;2023-08-12T20:01:43;22.70;99.90
7936;DHT22;4013;49.744;8.118;2023-08-12T20:04:10;22.60;99.90
7936;DHT22;4013;49.744;8.118;2023-08-12T20:06:37;22.70;99.90
7936;DHT22;4013;49.744;8.118;2023-08-12T20:09:05;22.60;99.90
7936;DHT22;4013;49.744;8.118;2023-08-12T20:11:33;22.60;99.90
7936;DHT22;4013;49.744;8.118;2023-08-12T20:14:00;22.50;99.90
7936;DHT22;4013;49.744;8.118;2023-08-12T20:16:26;22.40;99.90
7936;DHT22;4013;49.744;8.118;2023-08-12T20:18:54;22.30;99.90
7936;DHT22;4013;49.744;8.118;2023-08-12T20:21:21;22.30;99.90
7936;DHT22;4013;49.744;8.118;2023-08-12T20:23:49;22.30;99.90
7936;DHT22;4013;49.744;8.118;2023-08-12T20:26:17;22.20;99.90
7936;DHT22;4013;49.744;8.118;2023-08-12T20:28:44;22.10;99.90
7936;DHT22;4013;49.744;8.118;2023-08-12T20:31:11;22.10;99.90
7936;DHT22;4013;49.744;8.118;2023-08-12T20:33:38;22.10;99.90
7936;DHT22;4013;49.744;8.118;2023-08-12T20:36:06;22.10;99.90
7936;DHT22;4013;49.744;8.118;2023-08-12T20:38:33;22.10;99.90
7936;DHT22;4013;49.744;8.118;2023-08-12T20:41:00;22.00;99.90
7936;DHT22;4013;49.744;8.118;2023-08-12T20:43:29;22.00;99.90
7936;DHT22;4013;49.744;8.118;2023-08-12T20:45:56;22.00;99.90
7936;DHT22;4013;49.744;8.118;2023-08-12T20:48:23;22.00;99.90
7936;DHT22;4013;49.744;8.118;2023-08-12T20:50:50;21.90;99.90